createdAt,value
2018-09-19T00:01:03.272Z,15.8
2018-09-19T00:02:10.494Z,15.8
2018-09-19T00:03:17.433Z,15.8
2018-09-19T00:04:24.647Z,15.8
2018-09-19T00:05:31.860Z,15.8
2018-09-19T00:06:39.077Z,15.8
2018-09-19T00:07:46.293Z,15.8
2018-09-19T00:08:53.506Z,15.8
2018-09-19T00:10:00.718Z,15.8
2018-09-19T00:11:07.927Z,15.8
2018-09-19T00:12:14.877Z,15.8
2018-09-19T00:13:22.076Z,15.8
2018-09-19T00:14:29.289Z,15.7
2018-09-19T00:15:36.225Z,15.7
2018-09-19T00:16:43.439Z,15.7
2018-09-19T00:17:50.653Z,15.7
2018-09-19T00:18:57.870Z,15.6
2018-09-19T00:20:05.142Z,15.6
2018-09-19T00:21:12.495Z,15.6
2018-09-19T00:22:19.700Z,15.6
2018-09-19T00:23:26.911Z,15.5
2018-09-19T00:24:34.123Z,15.6
2018-09-19T00:25:41.338Z,15.6
2018-09-19T00:26:48.546Z,15.6
2018-09-19T00:27:55.760Z,15.5
2018-09-19T00:29:03.091Z,15.5
2018-09-19T00:30:10.328Z,15.5
2018-09-19T00:31:17.541Z,15.5
2018-09-19T00:32:24.758Z,15.5
2018-09-19T00:33:31.991Z,15.5
2018-09-19T00:34:39.203Z,15.5
2018-09-19T00:35:46.416Z,15.4
2018-09-19T00:36:53.628Z,15.4
2018-09-19T00:38:00.839Z,15.4
2018-09-19T00:39:08.055Z,15.4
2018-09-19T00:40:15.265Z,15.4
2018-09-19T00:41:22.507Z,15.4
2018-09-19T00:42:29.449Z,15.4
2018-09-19T00:43:36.662Z,15.3
2018-09-19T00:44:43.931Z,15.3
2018-09-19T00:45:51.137Z,15.3
2018-09-19T00:46:58.359Z,15.3
2018-09-19T00:48:05.569Z,15.3
2018-09-19T00:49:12.787Z,15.3
2018-09-19T00:50:19.991Z,15.3
2018-09-19T00:51:27.206Z,15.3
2018-09-19T00:52:34.433Z,15.2
2018-09-19T00:53:41.642Z,15.3
2018-09-19T00:54:48.866Z,15.2
2018-09-19T00:55:56.081Z,15.2
2018-09-19T00:57:03.296Z,15.2
2018-09-19T00:58:10.497Z,15.2
2018-09-19T00:59:17.442Z,15.2
2018-09-19T01:00:24.648Z,15.2
2018-09-19T01:01:31.855Z,15.1
2018-09-19T01:02:38.943Z,15.1
2018-09-19T01:03:46.257Z,15.1
2018-09-19T01:04:53.469Z,15.1
2018-09-19T01:06:00.682Z,15.1
2018-09-19T01:07:07.888Z,15
2018-09-19T01:08:15.112Z,15.1
2018-09-19T01:09:22.324Z,15
2018-09-19T01:10:29.300Z,15
2018-09-19T01:11:36.508Z,15
2018-09-19T01:12:43.724Z,15
2018-09-19T01:13:50.936Z,15
2018-09-19T01:14:57.880Z,15
2018-09-19T01:16:05.098Z,15
2018-09-19T01:17:12.308Z,15
2018-09-19T01:18:19.524Z,15
2018-09-19T01:19:26.742Z,15
2018-09-19T01:20:33.940Z,15
2018-09-19T01:21:41.153Z,14.9
2018-09-19T01:22:48.367Z,14.9
2018-09-19T01:23:55.299Z,14.9
2018-09-19T01:25:02.509Z,14.9
2018-09-19T01:26:09.720Z,14.9
2018-09-19T01:27:16.933Z,14.9
2018-09-19T01:28:24.147Z,14.9
2018-09-19T01:29:31.363Z,14.9
2018-09-19T01:30:38.597Z,14.8
2018-09-19T01:31:45.531Z,14.8
2018-09-19T01:32:52.469Z,14.8
2018-09-19T01:33:59.684Z,14.8
2018-09-19T01:35:06.915Z,14.8
2018-09-19T01:36:14.166Z,14.8
2018-09-19T01:37:21.383Z,14.7
2018-09-19T01:38:28.595Z,14.7
2018-09-19T01:39:35.804Z,14.7
2018-09-19T01:40:43.020Z,14.7
2018-09-19T01:41:50.232Z,14.6
2018-09-19T01:42:57.449Z,14.6
2018-09-19T01:44:04.658Z,14.6
2018-09-19T01:45:11.605Z,14.6
2018-09-19T01:46:18.807Z,14.6
2018-09-19T01:47:26.061Z,14.6
2018-09-19T01:48:32.996Z,14.6
2018-09-19T01:49:40.205Z,14.5
2018-09-19T01:50:47.505Z,14.5
2018-09-19T01:51:54.460Z,14.5
2018-09-19T01:53:01.669Z,14.5
2018-09-19T01:54:08.606Z,14.5
2018-09-19T01:55:15.816Z,14.4
2018-09-19T01:56:22.753Z,14.4
2018-09-19T01:57:30.012Z,14.4
2018-09-19T01:58:37.219Z,14.4
2018-09-19T01:59:44.434Z,14.4
2018-09-19T02:00:51.648Z,14.4
2018-09-19T02:01:58.860Z,14.4
2018-09-19T02:03:06.075Z,14.4
2018-09-19T02:04:13.317Z,14.3
2018-09-19T02:05:20.529Z,14.3
2018-09-19T02:06:27.761Z,14.3
2018-09-19T02:07:34.981Z,14.3
2018-09-19T02:08:42.188Z,14.3
2018-09-19T02:09:49.414Z,14.3
2018-09-19T02:10:56.627Z,14.2
2018-09-19T02:12:03.573Z,14.3
2018-09-19T02:13:10.503Z,14.3
2018-09-19T02:14:17.716Z,14.2
2018-09-19T02:15:24.928Z,14.2
2018-09-19T02:16:32.140Z,14.2
2018-09-19T02:17:39.368Z,14.2
2018-09-19T02:18:46.586Z,14.2
2018-09-19T02:19:53.806Z,14.2
2018-09-19T02:21:01.018Z,14.2
2018-09-19T02:22:08.227Z,14.2
2018-09-19T02:23:15.460Z,14.2
2018-09-19T02:24:22.671Z,14.1
2018-09-19T02:25:29.883Z,14.1
2018-09-19T02:26:37.093Z,14.1
2018-09-19T02:27:44.309Z,14.1
2018-09-19T02:28:51.519Z,14.1
2018-09-19T02:29:58.731Z,14.2
2018-09-19T02:31:05.939Z,14.2
2018-09-19T02:32:13.196Z,14.2
2018-09-19T02:33:20.423Z,14.1
2018-09-19T02:34:27.629Z,14.2
2018-09-19T02:35:34.840Z,14.2
2018-09-19T02:36:42.062Z,14.1
2018-09-19T02:37:49.266Z,14.1
2018-09-19T02:38:56.528Z,14.1
2018-09-19T02:40:03.754Z,14.1
2018-09-19T02:41:10.968Z,14.1
2018-09-19T02:42:18.187Z,14.1
2018-09-19T02:43:25.174Z,14.1
2018-09-19T02:44:32.136Z,14.1
2018-09-19T02:45:39.344Z,14
2018-09-19T02:46:46.963Z,14
2018-09-19T02:47:54.168Z,14
2018-09-19T02:49:01.112Z,14
2018-09-19T02:50:08.326Z,14
2018-09-19T02:51:15.267Z,14
2018-09-19T02:52:22.494Z,13.9
2018-09-19T02:53:29.703Z,13.9
2018-09-19T02:54:36.917Z,13.9
2018-09-19T02:55:44.134Z,13.9
2018-09-19T02:56:51.429Z,13.8
2018-09-19T02:57:58.645Z,13.8
2018-09-19T02:59:05.863Z,13.8
2018-09-19T03:00:13.086Z,13.8
2018-09-19T03:01:20.345Z,13.8
2018-09-19T03:02:27.002Z,13.8
2018-09-19T03:03:34.304Z,13.7
2018-09-19T03:05:49.794Z,13.7
2018-09-19T03:06:57.018Z,13.7
2018-09-19T03:08:04.229Z,13.7
2018-09-19T03:09:11.445Z,13.7
2018-09-19T03:10:18.681Z,13.7
2018-09-19T03:11:25.890Z,13.7
2018-09-19T03:12:32.834Z,13.6
2018-09-19T03:13:39.798Z,13.6
2018-09-19T03:14:46.742Z,13.6
2018-09-19T03:15:53.957Z,13.6
2018-09-19T03:17:01.274Z,13.6
2018-09-19T03:18:08.497Z,13.6
2018-09-19T03:19:15.711Z,13.6
2018-09-19T03:20:22.925Z,13.6
2018-09-19T03:21:30.140Z,13.6
2018-09-19T03:22:37.104Z,13.6
2018-09-19T03:23:44.537Z,13.6
2018-09-19T03:24:51.746Z,13.6
2018-09-19T03:25:59.000Z,13.6
2018-09-19T03:27:06.211Z,13.6
2018-09-19T03:28:13.416Z,13.6
2018-09-19T03:29:20.630Z,13.6
2018-09-19T03:30:27.845Z,13.6
2018-09-19T03:31:35.051Z,13.6
2018-09-19T03:32:42.268Z,13.6
2018-09-19T03:33:49.477Z,13.6
2018-09-19T03:34:56.416Z,13.6
2018-09-19T03:36:03.627Z,13.6
2018-09-19T03:37:10.840Z,13.6
2018-09-19T03:38:18.057Z,13.5
2018-09-19T03:39:25.268Z,13.5
2018-09-19T03:40:32.476Z,13.5
2018-09-19T03:41:39.689Z,13.5
2018-09-19T03:42:46.910Z,13.5
2018-09-19T03:43:54.135Z,13.4
2018-09-19T03:45:01.343Z,13.4
2018-09-19T03:46:08.294Z,13.4
2018-09-19T03:47:15.506Z,13.4
2018-09-19T03:48:22.720Z,13.4
2018-09-19T03:49:29.930Z,13.4
2018-09-19T03:50:37.144Z,13.5
2018-09-19T03:51:44.358Z,13.5
2018-09-19T03:52:51.293Z,13.5
2018-09-19T03:53:58.503Z,13.4
2018-09-19T03:55:05.722Z,13.4
2018-09-19T03:56:12.625Z,13.4
2018-09-19T03:57:19.558Z,13.4
2018-09-19T03:58:26.768Z,13.4
2018-09-19T03:59:33.982Z,13.4
2018-09-19T04:00:41.210Z,13.3
2018-09-19T04:01:48.423Z,13.3
2018-09-19T04:02:55.361Z,13.3
2018-09-19T04:04:02.575Z,13.3
2018-09-19T04:05:09.785Z,13.3
2018-09-19T04:06:17.018Z,13.3
2018-09-19T04:07:24.219Z,13.3
2018-09-19T04:08:31.432Z,13.3
2018-09-19T04:09:38.647Z,13.3
2018-09-19T04:10:45.856Z,13.2
2018-09-19T04:11:53.085Z,13.2
2018-09-19T04:13:00.313Z,13.2
2018-09-19T04:14:07.577Z,13.2
2018-09-19T04:15:14.784Z,13.2
2018-09-19T04:16:21.998Z,13.2
2018-09-19T04:17:29.204Z,13.2
2018-09-19T04:18:36.412Z,13.2
2018-09-19T04:19:43.349Z,13.2
2018-09-19T04:20:50.567Z,13.2
2018-09-19T04:21:57.507Z,13.2
2018-09-19T04:23:04.504Z,13.2
2018-09-19T04:24:11.712Z,13.2
2018-09-19T04:25:18.921Z,13.2
2018-09-19T04:26:26.136Z,13.2
2018-09-19T04:27:33.574Z,13.2
2018-09-19T04:28:40.771Z,13.2
2018-09-19T04:29:48.028Z,13.2
2018-09-19T04:30:55.238Z,13.1
2018-09-19T04:32:02.455Z,13.1
2018-09-19T04:33:09.713Z,13.1
2018-09-19T04:34:16.937Z,13.2
2018-09-19T04:35:24.145Z,13.1
2018-09-19T04:36:31.352Z,13.1
2018-09-19T04:37:38.562Z,13.1
2018-09-19T04:38:45.769Z,13.1
2018-09-19T04:39:52.982Z,13.1
2018-09-19T04:41:00.193Z,13.1
2018-09-19T04:42:07.142Z,13.1
2018-09-19T04:43:14.355Z,13
2018-09-19T04:44:21.296Z,13
2018-09-19T04:45:28.512Z,13
2018-09-19T04:46:35.481Z,13
2018-09-19T04:47:42.699Z,13
2018-09-19T04:48:49.638Z,13
2018-09-19T04:49:56.844Z,12.9
2018-09-19T04:51:04.057Z,12.9
2018-09-19T04:52:11.275Z,12.9
2018-09-19T04:53:18.482Z,12.9
2018-09-19T04:54:25.690Z,12.9
2018-09-19T04:55:32.909Z,12.9
2018-09-19T04:56:40.119Z,12.9
2018-09-19T04:57:47.331Z,12.9
2018-09-19T04:58:54.538Z,12.9
2018-09-19T05:00:01.776Z,12.9
2018-09-19T05:01:09.000Z,12.9
2018-09-19T05:02:16.195Z,12.9
2018-09-19T05:03:23.416Z,12.9
2018-09-19T05:04:30.625Z,12.9
2018-09-19T05:05:37.917Z,12.9
2018-09-19T05:06:45.232Z,12.9
2018-09-19T05:07:52.475Z,12.9
2018-09-19T05:08:59.669Z,12.9
2018-09-19T05:10:06.881Z,12.9
2018-09-19T05:11:14.175Z,12.9
2018-09-19T05:12:21.476Z,12.9
2018-09-19T05:13:28.416Z,12.9
2018-09-19T05:14:35.649Z,12.9
2018-09-19T05:15:42.862Z,12.9
2018-09-19T05:16:50.079Z,12.9
2018-09-19T05:17:57.292Z,12.9
2018-09-19T05:19:04.225Z,12.9
2018-09-19T05:20:11.439Z,12.9
2018-09-19T05:21:18.655Z,12.9
2018-09-19T05:22:25.910Z,12.9
2018-09-19T05:23:33.118Z,12.9
2018-09-19T05:24:40.336Z,12.9
2018-09-19T05:25:47.544Z,12.9
2018-09-19T05:26:54.802Z,12.9
2018-09-19T05:28:01.750Z,12.9
2018-09-19T05:29:08.960Z,12.9
2018-09-19T05:30:16.177Z,12.9
2018-09-19T05:31:23.391Z,12.9
2018-09-19T05:32:30.653Z,13
2018-09-19T05:33:37.863Z,13
2018-09-19T05:34:45.078Z,13.1
2018-09-19T05:35:52.290Z,13.1
2018-09-19T05:36:59.196Z,13.1
2018-09-19T05:38:06.127Z,13.2
2018-09-19T05:39:13.347Z,13.2
2018-09-19T05:40:20.557Z,13.2
2018-09-19T05:41:27.771Z,13.2
2018-09-19T05:42:34.717Z,13.2
2018-09-19T05:43:41.916Z,13.3
2018-09-19T05:44:49.160Z,13.3
2018-09-19T05:45:56.373Z,13.4
2018-09-19T05:47:03.309Z,13.4
2018-09-19T05:48:10.249Z,13.5
2018-09-19T05:49:17.460Z,13.6
2018-09-19T05:50:24.686Z,13.6
2018-09-19T05:51:31.939Z,13.7
2018-09-19T05:52:39.152Z,13.7
2018-09-19T05:53:46.363Z,13.8
2018-09-19T05:54:53.569Z,13.9
2018-09-19T05:56:00.780Z,14
2018-09-19T05:57:07.723Z,14
2018-09-19T06:06:59.422Z,14.8
2018-09-19T06:08:06.634Z,14.8
2018-09-19T06:09:13.565Z,14.9
2018-09-19T06:10:20.781Z,15
2018-09-19T06:11:27.994Z,15.1
2018-09-19T06:12:35.293Z,15.3
2018-09-19T06:13:42.246Z,15.3
2018-09-19T06:14:49.461Z,15.5
2018-09-19T06:15:56.668Z,15.6
2018-09-19T06:17:03.905Z,15.7
2018-09-19T06:18:10.834Z,15.9
2018-09-19T06:19:18.045Z,15.9
2018-09-19T06:20:25.261Z,15.9
2018-09-19T06:21:32.472Z,15.9
2018-09-19T06:22:39.683Z,15.9
2018-09-19T06:23:46.937Z,16
2018-09-19T06:24:54.192Z,16.1
2018-09-19T06:26:01.130Z,16.2
2018-09-19T06:27:08.516Z,16.3
2018-09-19T06:28:15.811Z,16.4
2018-09-19T06:29:23.026Z,16.5
2018-09-19T06:30:30.242Z,16.5
2018-09-19T06:31:37.454Z,16.6
2018-09-19T06:32:44.722Z,16.7
2018-09-19T06:33:52.046Z,16.8
2018-09-19T06:34:59.249Z,16.8
2018-09-19T06:36:06.466Z,16.9
2018-09-19T06:37:13.676Z,17
2018-09-19T06:38:20.940Z,17
2018-09-19T06:39:28.268Z,17
2018-09-19T06:40:35.672Z,16.9
2018-09-19T06:41:42.837Z,16.9
2018-09-19T06:42:50.055Z,17
2018-09-19T06:43:57.272Z,17
2018-09-19T06:45:04.482Z,16.9
2018-09-19T06:46:11.696Z,17
2018-09-19T06:47:18.907Z,17.1
2018-09-19T06:48:26.117Z,17.2
2018-09-19T06:49:33.337Z,17.3
2018-09-19T06:50:40.555Z,17.4
2018-09-19T06:51:47.788Z,17.5
2018-09-19T06:52:55.366Z,17.6
2018-09-19T06:54:02.584Z,17.7
2018-09-19T06:55:09.794Z,17.8
2018-09-19T06:56:17.010Z,17.8
2018-09-19T06:57:24.269Z,17.7
2018-09-19T06:58:31.490Z,17.7
2018-09-19T06:59:38.456Z,17.8
2018-09-19T07:00:45.784Z,17.8
2018-09-19T07:01:53.000Z,17.9
2018-09-19T07:03:00.219Z,18
2018-09-19T07:04:07.433Z,18
2018-09-19T07:05:14.375Z,18
2018-09-19T07:06:21.582Z,17.9
2018-09-19T07:07:28.846Z,17.9
2018-09-19T07:08:35.773Z,17.9
2018-09-19T07:09:42.993Z,17.8
2018-09-19T07:10:50.226Z,17.8
2018-09-19T07:11:57.460Z,17.8
2018-09-19T07:13:04.686Z,17.7
2018-09-19T07:14:11.619Z,17.7
2018-09-19T07:15:18.882Z,17.8
2018-09-19T07:16:25.550Z,17.8
2018-09-19T07:17:32.766Z,17.8
2018-09-19T07:18:40.002Z,17.8
2018-09-19T07:19:47.313Z,17.8
2018-09-19T07:20:54.533Z,17.8
2018-09-19T07:22:01.472Z,17.8
2018-09-19T07:23:08.689Z,17.9
2018-09-19T07:24:15.921Z,17.9
2018-09-19T07:25:23.297Z,18
2018-09-19T07:26:30.240Z,18.3
2018-09-19T07:27:37.455Z,18.4
2018-09-19T07:28:44.670Z,18.6
2018-09-19T07:29:51.939Z,18.7
2018-09-19T07:30:58.981Z,18.9
2018-09-19T07:32:06.327Z,19.1
2018-09-19T07:33:13.580Z,19.1
2018-09-19T07:34:20.532Z,19.2
2018-09-19T07:35:27.751Z,19.3
2018-09-19T07:36:34.967Z,19.3
2018-09-19T07:37:42.181Z,19.4
2018-09-19T07:38:49.398Z,19.3
2018-09-19T07:39:56.334Z,19.3
2018-09-19T07:41:03.274Z,19.3
2018-09-19T07:42:10.495Z,19.4
2018-09-19T07:43:17.710Z,19.6
2018-09-19T07:44:24.924Z,19.7
2018-09-19T07:45:32.147Z,19.8
2018-09-19T07:46:39.452Z,19.8
2018-09-19T07:47:46.882Z,19.8
2018-09-19T07:48:54.097Z,19.9
2018-09-19T07:50:01.042Z,20.1
2018-09-19T07:51:08.260Z,20.1
2018-09-19T07:52:15.472Z,20.2
2018-09-19T07:53:22.687Z,20.2
2018-09-19T07:54:30.147Z,20.3
2018-09-19T07:55:37.516Z,20.3
2018-09-19T07:56:44.759Z,20.5
2018-09-19T07:57:52.043Z,20.6
2018-09-19T07:58:59.567Z,20.8
2018-09-19T08:00:06.787Z,20.9
2018-09-19T08:01:14.252Z,21
2018-09-19T08:02:21.775Z,20.9
2018-09-19T08:03:28.999Z,20.8
2018-09-19T08:04:36.262Z,20.9
2018-09-19T08:05:43.503Z,20.8
2018-09-19T08:06:50.465Z,20.9
2018-09-19T08:07:57.129Z,21
2018-09-19T08:09:04.435Z,21.2
2018-09-19T08:10:11.505Z,21.3
2018-09-19T08:11:18.450Z,21.5
2018-09-19T08:12:25.679Z,21.3
2018-09-19T08:13:32.899Z,21.4
2018-09-19T08:14:40.117Z,21.6
2018-09-19T08:15:47.333Z,21.7
2018-09-19T08:16:54.675Z,21.8
2018-09-19T08:18:02.023Z,21.9
2018-09-19T08:19:09.242Z,22.1
2018-09-19T08:20:16.458Z,22.2
2018-09-19T08:21:23.683Z,22.2
2018-09-19T08:22:31.018Z,22.3
2018-09-19T08:23:38.531Z,22.3
2018-09-19T08:24:45.762Z,22.1
2018-09-19T08:25:52.978Z,22.1
2018-09-19T08:27:00.202Z,22
2018-09-19T08:28:07.415Z,22
2018-09-19T08:29:14.655Z,22.1
2018-09-19T08:30:21.876Z,22.1
2018-09-19T08:31:28.815Z,22
2018-09-19T08:32:36.038Z,22.1
2018-09-19T08:33:43.255Z,22
2018-09-19T08:34:50.479Z,21.8
2018-09-19T08:35:57.701Z,21.9
2018-09-19T08:37:04.926Z,22
2018-09-19T08:38:12.147Z,22.3
2018-09-19T08:39:19.367Z,22.6
2018-09-19T08:40:26.593Z,22.8
2018-09-19T08:41:33.807Z,22.7
2018-09-19T08:42:41.030Z,22.8
2018-09-19T08:43:48.249Z,22.8
2018-09-19T08:44:55.199Z,23
2018-09-19T08:46:02.423Z,23
2018-09-19T08:47:09.653Z,23.2
2018-09-19T08:48:16.865Z,23.3
2018-09-19T08:49:23.807Z,23.3
2018-09-19T08:50:31.209Z,23.3
2018-09-19T08:51:38.600Z,23.4
2018-09-19T08:52:45.815Z,23.2
2018-09-19T08:53:52.755Z,23
2018-09-19T08:55:00.036Z,23.1
2018-09-19T08:56:06.977Z,23.2
2018-09-19T08:57:14.135Z,23.3
2018-09-19T08:58:21.618Z,23.3
2018-09-19T08:59:28.874Z,23.3
2018-09-19T09:00:35.816Z,23.3
2018-09-19T09:01:43.029Z,23.5
2018-09-19T09:02:50.250Z,23.6
2018-09-19T09:03:57.465Z,23.6
2018-09-19T09:05:04.742Z,23.7
2018-09-19T09:06:11.715Z,23.7
2018-09-19T09:07:18.936Z,23.7
2018-09-19T09:08:26.153Z,23.8
2018-09-19T09:09:33.426Z,23.7
2018-09-19T09:10:40.637Z,24
2018-09-19T09:11:47.863Z,24.3
2018-09-19T09:12:54.805Z,24.4
2018-09-19T09:14:02.036Z,24.5
2018-09-19T09:15:09.243Z,24.5
2018-09-19T09:16:16.465Z,24.5
2018-09-19T09:17:23.681Z,24.5
2018-09-19T09:18:30.901Z,24.4
2018-09-19T09:19:37.847Z,24.5
2018-09-19T09:20:44.813Z,24.5
2018-09-19T09:21:52.039Z,24.6
2018-09-19T09:22:59.258Z,24.9
2018-09-19T09:24:06.476Z,24.8
2018-09-19T09:25:13.699Z,24.7
2018-09-19T09:26:20.911Z,24.7
2018-09-19T09:27:27.641Z,24.8
2018-09-19T09:28:35.190Z,25
2018-09-19T09:29:42.410Z,25.3
2018-09-19T09:30:49.626Z,25.4
2018-09-19T09:31:56.846Z,25.7
2018-09-19T09:33:04.068Z,25.8
2018-09-19T09:34:11.441Z,26
2018-09-19T09:35:18.742Z,26
2018-09-19T09:36:25.965Z,25.9
2018-09-19T09:37:33.181Z,25.8
2018-09-19T09:38:40.616Z,25.9
2018-09-19T09:39:47.583Z,25.8
2018-09-19T09:40:54.793Z,25.8
2018-09-19T09:42:01.473Z,26
2018-09-19T09:43:08.420Z,25.9
2018-09-19T09:44:15.630Z,25.8
2018-09-19T09:45:22.855Z,25.9
2018-09-19T09:46:30.078Z,26.2
2018-09-19T09:47:37.300Z,26.3
2018-09-19T09:48:44.521Z,26.3
2018-09-19T09:49:51.746Z,26.2
2018-09-19T09:50:58.970Z,26.2
2018-09-19T09:52:06.202Z,26.1
2018-09-19T09:53:13.562Z,26.1
2018-09-19T09:54:20.543Z,26.1
2018-09-19T09:55:27.774Z,26
2018-09-19T09:56:34.989Z,26
2018-09-19T09:57:42.220Z,26.2
2018-09-19T09:58:49.178Z,26.5
2018-09-19T09:59:56.397Z,26.2
2018-09-19T10:01:03.743Z,26.2
2018-09-19T10:02:11.176Z,26.2
2018-09-19T10:03:18.128Z,26.4
2018-09-19T10:04:25.345Z,26.5
2018-09-19T10:05:32.286Z,26.8
2018-09-19T10:06:39.512Z,26.8
2018-09-19T10:07:46.464Z,26.9
2018-09-19T10:08:53.691Z,27.2
2018-09-19T10:10:00.919Z,27.4
2018-09-19T10:11:07.864Z,27.5
2018-09-19T10:12:15.079Z,27.5
2018-09-19T10:13:22.306Z,27.3
2018-09-19T10:14:29.532Z,26.9
2018-09-19T10:15:36.742Z,26.8
2018-09-19T10:16:43.965Z,26.8
2018-09-19T10:17:50.914Z,27
2018-09-19T10:18:58.131Z,27.4
2018-09-19T10:20:05.353Z,27.3
2018-09-19T10:21:12.586Z,27.3
2018-09-19T10:22:19.811Z,27.3
2018-09-19T10:23:27.034Z,27.5
2018-09-19T10:24:34.004Z,27.5
2018-09-19T10:25:41.221Z,27.6
2018-09-19T10:26:48.437Z,27.1
2018-09-19T10:27:55.657Z,26.9
2018-09-19T10:29:02.877Z,26.9
2018-09-19T10:30:10.098Z,27
2018-09-19T10:31:17.318Z,26.9
2018-09-19T10:32:24.270Z,27
2018-09-19T10:33:31.495Z,27
2018-09-19T10:34:38.707Z,27.2
2018-09-19T10:35:45.656Z,27.4
2018-09-19T10:36:52.871Z,27.5
2018-09-19T10:38:00.091Z,27.6
2018-09-19T10:39:07.316Z,27.9
2018-09-19T10:40:14.532Z,28.1
2018-09-19T10:41:21.756Z,27.9
2018-09-19T10:42:28.975Z,27.7
2018-09-19T10:43:36.197Z,27.9
2018-09-19T10:44:43.415Z,28.3
2018-09-19T10:45:50.361Z,28.3
2018-09-19T10:46:57.729Z,28.5
2018-09-19T10:48:04.956Z,28.5
2018-09-19T10:49:12.186Z,28.4
2018-09-19T10:50:19.405Z,28.2
2018-09-19T10:51:26.673Z,28.2
2018-09-19T10:52:33.879Z,28.4
2018-09-19T10:53:41.099Z,28.4
2018-09-19T10:54:48.320Z,28.5
2018-09-19T10:55:55.543Z,28.5
2018-09-19T10:57:02.926Z,28.5
2018-09-19T10:58:10.253Z,28.6
2018-09-19T10:59:17.477Z,28.8
2018-09-19T11:00:24.432Z,29
2018-09-19T11:01:31.652Z,29.2
2018-09-19T11:02:38.871Z,29.1
2018-09-19T11:03:46.099Z,29.1
2018-09-19T11:04:53.329Z,29.3
2018-09-19T11:06:00.284Z,29
2018-09-19T11:07:07.509Z,28.7
2018-09-19T11:08:14.723Z,28.8
2018-09-19T11:09:21.972Z,28.7
2018-09-19T11:10:29.183Z,28.9
2018-09-19T11:11:36.400Z,29.1
2018-09-19T11:12:43.617Z,29
2018-09-19T11:13:50.834Z,29
2018-09-19T11:14:58.051Z,29.1
2018-09-19T11:16:05.274Z,29.2
2018-09-19T11:17:12.621Z,29.5
2018-09-19T11:18:19.699Z,29.6
2018-09-19T11:19:26.925Z,29.8
2018-09-19T11:20:34.152Z,29.8
2018-09-19T11:21:41.109Z,29.6
2018-09-19T11:22:48.333Z,29.6
2018-09-19T11:23:55.555Z,29.7
2018-09-19T11:25:02.773Z,29.5
2018-09-19T11:26:10.006Z,29.5
2018-09-19T11:27:17.239Z,29.5
2018-09-19T11:28:24.188Z,29.5
2018-09-19T11:29:31.414Z,29.4
2018-09-19T11:30:38.637Z,29.5
2018-09-19T11:31:45.856Z,29.6
2018-09-19T11:32:53.075Z,29.6
2018-09-19T11:34:00.299Z,29.8
2018-09-19T11:35:07.251Z,29.6
2018-09-19T11:36:14.203Z,29.5
2018-09-19T11:37:21.416Z,29.6
2018-09-19T11:38:28.641Z,29.9
2018-09-19T11:39:35.863Z,29.9
2018-09-19T11:40:42.810Z,30.1
2018-09-19T11:41:50.044Z,30.1
2018-09-19T11:42:57.274Z,30.1
2018-09-19T11:44:04.505Z,30.2
2018-09-19T11:45:11.457Z,30.1
2018-09-19T11:46:18.409Z,29.7
2018-09-19T11:47:25.637Z,29.7
2018-09-19T11:48:32.857Z,29.4
2018-09-19T11:49:40.114Z,29.2
2018-09-19T11:50:47.338Z,29.5
2018-09-19T11:51:54.557Z,29.3
2018-09-19T11:53:01.502Z,29.4
2018-09-19T11:54:08.733Z,29.5
2018-09-19T11:55:15.954Z,29.7
2018-09-19T11:56:23.184Z,30
2018-09-19T11:57:30.135Z,30.1
2018-09-19T11:58:37.353Z,30
2018-09-19T11:59:44.574Z,29.8
2018-09-19T12:00:51.797Z,30
2018-09-19T12:01:59.141Z,30.5
2018-09-19T12:03:06.575Z,30.7
2018-09-19T12:04:13.793Z,30.9
2018-09-19T12:05:21.014Z,31
2018-09-19T12:06:28.238Z,30.8
2018-09-19T12:07:35.453Z,30.7
2018-09-19T12:08:42.407Z,30.9
2018-09-19T12:09:49.627Z,31.2
2018-09-19T12:10:56.844Z,31.3
2018-09-19T12:12:04.067Z,31.3
2018-09-19T12:13:11.287Z,31.4
2018-09-19T12:14:18.520Z,31.2
2018-09-19T12:15:25.749Z,31.1
2018-09-19T12:16:32.973Z,31.1
2018-09-19T12:17:40.194Z,31.1
2018-09-19T12:18:47.419Z,31.1
2018-09-19T12:19:54.646Z,31.3
2018-09-19T12:21:01.868Z,31.3
2018-09-19T12:22:09.091Z,31.6
2018-09-19T12:23:16.322Z,31.6
2018-09-19T22:00:06.037Z,16.5
2018-09-19T22:01:13.272Z,16.5
2018-09-19T22:02:20.719Z,16.5
2018-09-19T22:03:27.944Z,16.5
2018-09-19T22:04:35.152Z,16.5
2018-09-19T22:05:56.752Z,16.4
2018-09-19T22:07:03.689Z,16.4
2018-09-19T22:08:10.909Z,16.4
2018-09-19T22:09:18.124Z,16.4
2018-09-19T22:10:25.336Z,16.4
2018-09-19T22:11:32.554Z,16.3
2018-09-19T22:12:39.771Z,16.3
2018-09-19T22:13:47.035Z,16.3
2018-09-19T22:14:53.960Z,16.3
2018-09-19T22:16:01.178Z,16.3
2018-09-19T22:17:08.406Z,16.3
2018-09-19T22:18:15.622Z,16.3
2018-09-19T22:19:22.842Z,16.3
2018-09-19T22:20:29.785Z,16.3
2018-09-19T22:21:37.029Z,16.3
2018-09-19T22:22:44.243Z,16.3
2018-09-19T22:23:51.461Z,16.3
2018-09-19T22:24:58.677Z,16.3
2018-09-19T22:26:05.898Z,16.2
2018-09-19T22:27:13.116Z,16.2
2018-09-19T22:28:20.053Z,16.2
2018-09-19T22:29:27.264Z,16.2
2018-09-19T22:30:34.487Z,16.2
2018-09-19T22:31:41.426Z,16.2
2018-09-19T22:32:48.648Z,16.2
2018-09-19T22:33:55.864Z,16.2
2018-09-19T22:35:03.077Z,16.2
2018-09-19T22:36:10.019Z,16.2
2018-09-19T22:37:16.981Z,16.1
2018-09-19T22:38:23.930Z,16.1
2018-09-19T22:39:31.150Z,16.1
2018-09-19T22:40:38.103Z,16.1
2018-09-19T22:41:45.320Z,16.1
2018-09-19T22:42:52.532Z,16.1
2018-09-19T22:43:59.751Z,16.1
2018-09-19T22:45:06.962Z,16.1
2018-09-19T22:46:14.176Z,16.1
2018-09-19T22:47:21.390Z,16
2018-09-19T22:48:28.611Z,16
2018-09-19T22:49:35.566Z,16
2018-09-19T22:50:42.788Z,16
2018-09-19T22:51:50.002Z,16
2018-09-19T22:52:57.218Z,16
2018-09-19T22:54:04.430Z,16
2018-09-19T22:55:11.647Z,16
2018-09-19T22:56:18.863Z,16
2018-09-19T22:57:26.084Z,16
2018-09-19T22:58:33.309Z,15.9
2018-09-19T22:59:40.525Z,15.9
2018-09-19T23:00:47.742Z,15.9
2018-09-19T23:01:55.009Z,15.9
2018-09-19T23:03:02.407Z,15.9
2018-09-19T23:04:09.347Z,15.8
2018-09-19T23:05:16.563Z,15.8
2018-09-19T23:06:23.779Z,15.8
2018-09-19T23:07:30.994Z,15.8
2018-09-19T23:08:38.213Z,15.8
2018-09-19T23:09:45.433Z,15.8
2018-09-19T23:10:52.652Z,15.8
2018-09-19T23:11:59.862Z,15.8
2018-09-19T23:13:07.074Z,15.8
2018-09-19T23:14:13.990Z,15.8
2018-09-19T23:15:21.204Z,15.7
2018-09-19T23:16:28.420Z,15.7
2018-09-19T23:17:35.637Z,15.7
2018-09-19T23:18:42.586Z,15.7
2018-09-19T23:19:49.799Z,15.7
2018-09-19T23:20:57.024Z,15.7
2018-09-19T23:22:04.242Z,15.7
2018-09-19T23:23:11.465Z,15.7
2018-09-19T23:24:18.676Z,15.7
2018-09-19T23:25:25.619Z,15.7
2018-09-19T23:26:32.839Z,15.6
2018-09-19T23:27:40.062Z,15.6
2018-09-19T23:28:47.278Z,15.6
2018-09-19T23:29:54.493Z,15.6
2018-09-19T23:31:01.439Z,15.5
2018-09-19T23:32:08.650Z,15.5
2018-09-19T23:33:15.864Z,15.5
2018-09-19T23:34:23.302Z,15.5
2018-09-19T23:35:30.522Z,15.5
2018-09-19T23:36:37.463Z,15.5
2018-09-19T23:37:44.683Z,15.4
2018-09-19T23:38:51.904Z,15.4
2018-09-19T23:39:59.123Z,15.4
2018-09-19T23:41:06.061Z,15.4
2018-09-19T23:42:13.273Z,15.3
2018-09-19T23:43:20.495Z,15.3
2018-09-19T23:44:27.430Z,15.3
2018-09-19T23:45:34.652Z,15.3
2018-09-19T23:46:41.879Z,15.3
2018-09-19T23:47:48.825Z,15.3
2018-09-19T23:48:56.040Z,15.2
2018-09-19T23:50:03.254Z,15.2
2018-09-19T23:51:10.467Z,15.2
2018-09-19T23:52:17.705Z,15.2
2018-09-19T23:53:24.919Z,15.2
2018-09-19T23:54:31.862Z,15.2
2018-09-19T23:55:39.083Z,15.2
2018-09-19T23:56:46.028Z,15.1
2018-09-19T23:57:53.144Z,15.1
2018-09-19T23:59:00.562Z,15.1
